createdAt,value
2023-03-01T00:00:33.715Z,-3.07
2023-03-01T00:01:33.698Z,-3.02
2023-03-01T00:02:33.704Z,-3.17
2023-03-01T00:03:33.716Z,-3.10
2023-03-01T00:04:33.656Z,-3.15
2023-03-01T00:05:33.639Z,-3.12
2023-03-01T00:06:33.800Z,-3.19
2023-03-01T00:07:33.607Z,-3.25
2023-03-01T00:08:33.597Z,-3.22
2023-03-01T00:09:33.578Z,-3.10
2023-03-01T00:10:33.564Z,-3.06
2023-03-01T00:11:33.544Z,-2.97
2023-03-01T00:12:33.532Z,-2.98
2023-03-01T00:13:33.538Z,-2.99
2023-03-01T00:14:33.500Z,-2.83
2023-03-01T00:15:33.482Z,-2.91
2023-03-01T00:16:33.701Z,-2.98
2023-03-01T00:17:33.449Z,-2.92
2023-03-01T00:18:33.435Z,-2.97
2023-03-01T00:19:33.430Z,-2.99
2023-03-01T00:20:33.402Z,-3.06
2023-03-01T00:21:33.431Z,-2.99
2023-03-01T00:22:33.375Z,-3.06
2023-03-01T00:23:33.356Z,-3.19
2023-03-01T00:24:33.343Z,-3.20
2023-03-01T00:25:33.325Z,-3.23
2023-03-01T00:26:33.429Z,-3.17
2023-03-01T00:27:33.298Z,-3.27
2023-03-01T00:28:33.285Z,-3.22
2023-03-01T00:29:33.262Z,-3.19
2023-03-01T00:30:33.277Z,-3.12
2023-03-01T00:31:33.248Z,-3.07
2023-03-01T00:32:33.217Z,-3.12
2023-03-01T00:33:33.201Z,-3.07
2023-03-01T00:34:33.182Z,-3.04
2023-03-01T00:35:33.206Z,-3.10
2023-03-01T00:36:33.553Z,-3.19
2023-03-01T00:37:33.147Z,-3.19
2023-03-01T00:38:33.124Z,-3.22
2023-03-01T00:39:33.108Z,-3.30
2023-03-01T00:40:33.090Z,-3.23
2023-03-01T00:41:33.102Z,-3.27
2023-03-01T00:42:33.068Z,-3.23
2023-03-01T00:43:33.048Z,-3.28
2023-03-01T00:44:33.028Z,-3.28
2023-03-01T00:45:33.013Z,-3.41
2023-03-01T00:46:33.468Z,-3.41
2023-03-01T00:47:32.979Z,-3.44
2023-03-01T00:48:32.966Z,-3.35
2023-03-01T00:49:32.958Z,-3.30
2023-03-01T00:50:32.935Z,-3.25
2023-03-01T00:51:32.931Z,-3.30
2023-03-01T00:52:32.908Z,-3.10
2023-03-01T00:53:32.894Z,-3.01
2023-03-01T00:54:32.877Z,-3.09
2023-03-01T00:55:32.860Z,-3.10
2023-03-01T00:56:33.280Z,-3.10
2023-03-01T00:57:32.824Z,-3.16
2023-03-01T00:58:32.810Z,-3.17
2023-03-01T00:59:32.794Z,-3.23
2023-03-01T01:00:32.776Z,-3.22
2023-03-01T01:01:32.837Z,-3.25
2023-03-01T01:02:32.805Z,-3.22
2023-03-01T01:03:32.730Z,-3.22
2023-03-01T01:04:32.714Z,-3.22
2023-03-01T01:05:32.699Z,-3.20
2023-03-01T01:06:33.078Z,-3.13
2023-03-01T01:07:32.666Z,-3.09
2023-03-01T01:08:32.647Z,-3.06
2023-03-01T01:09:32.640Z,-3.01
2023-03-01T01:10:32.615Z,-3.01
2023-03-01T01:11:32.625Z,-3.04
2023-03-01T01:12:32.585Z,-3.01
2023-03-01T01:13:32.570Z,-3.15
2023-03-01T01:14:32.552Z,-3.17
2023-03-01T01:15:32.561Z,-3.17
2023-03-01T01:16:32.956Z,-3.25
2023-03-01T01:17:32.503Z,-3.27
2023-03-01T01:18:32.487Z,-3.27
2023-03-01T01:19:32.472Z,-3.20
2023-03-01T01:20:32.479Z,-3.33
2023-03-01T01:21:32.446Z,-3.33
2023-03-01T01:22:32.425Z,-3.33
2023-03-01T01:23:32.423Z,-3.35
2023-03-01T01:24:32.388Z,-3.41
2023-03-01T01:25:32.372Z,-3.48
2023-03-01T01:26:32.850Z,-3.52
2023-03-01T01:27:32.345Z,-3.63
2023-03-01T01:28:32.332Z,-3.55
2023-03-01T01:29:32.308Z,-3.59
2023-03-01T01:30:32.307Z,-3.59
2023-03-01T01:31:32.387Z,-3.63
2023-03-01T01:32:32.322Z,-3.63
2023-03-01T01:33:32.257Z,-3.69
2023-03-01T01:34:32.236Z,-3.69
2023-03-01T01:35:32.263Z,-3.63
2023-03-01T01:36:32.721Z,-3.80
2023-03-01T01:37:32.186Z,-3.72
2023-03-01T01:38:32.173Z,-3.69
2023-03-01T01:39:32.152Z,-3.64
2023-03-01T01:40:32.144Z,-3.74
2023-03-01T01:41:32.116Z,-3.78
2023-03-01T01:42:32.103Z,-3.72
2023-03-01T01:43:32.085Z,-3.67
2023-03-01T01:44:32.077Z,-3.66
2023-03-01T01:45:32.055Z,-3.75
2023-03-01T01:46:32.582Z,-3.77
2023-03-01T01:47:32.083Z,-3.74
2023-03-01T01:48:32.004Z,-3.72
2023-03-01T01:49:31.993Z,-3.72
2023-03-01T01:50:31.973Z,-3.70
2023-03-01T01:51:31.958Z,-3.70
2023-03-01T01:52:31.942Z,-3.74
2023-03-01T01:53:31.926Z,-3.74
2023-03-01T01:54:31.909Z,-3.75
2023-03-01T01:55:31.894Z,-3.70
2023-03-01T01:56:32.324Z,-3.78
2023-03-01T01:57:31.860Z,-3.75
2023-03-01T01:58:31.869Z,-3.69
2023-03-01T01:59:31.830Z,-3.64
2023-03-01T02:00:31.817Z,-3.51
2023-03-01T02:01:31.799Z,-3.67
2023-03-01T02:02:31.825Z,-3.55
2023-03-01T02:03:31.880Z,-3.58
2023-03-01T02:04:31.748Z,-3.66
2023-03-01T02:05:31.742Z,-3.63
2023-03-01T02:06:32.038Z,-3.61
2023-03-01T02:07:31.702Z,-3.70
2023-03-01T02:08:31.690Z,-3.61
2023-03-01T02:09:31.672Z,-3.66
2023-03-01T02:10:31.656Z,-3.75
2023-03-01T02:11:31.640Z,-3.66
2023-03-01T02:12:31.618Z,-3.69
2023-03-01T02:13:31.609Z,-3.78
2023-03-01T02:14:31.588Z,-3.74
2023-03-01T02:15:31.579Z,-3.80
2023-03-01T02:16:32.057Z,-3.89
2023-03-01T02:17:31.541Z,-3.85
2023-03-01T02:18:31.526Z,-3.78
2023-03-01T02:19:31.510Z,-3.77
2023-03-01T02:20:31.502Z,-3.82
2023-03-01T02:21:31.473Z,-3.80
2023-03-01T02:22:31.520Z,-3.83
2023-03-01T02:23:31.445Z,-3.83
2023-03-01T02:24:31.433Z,-3.77
2023-03-01T02:25:31.412Z,-3.85
2023-03-01T02:26:31.695Z,-3.75
2023-03-01T02:27:31.382Z,-3.77
2023-03-01T02:28:31.364Z,-3.77
2023-03-01T02:29:31.363Z,-3.74
2023-03-01T02:30:31.334Z,-3.91
2023-03-01T02:31:31.360Z,-3.83
2023-03-01T02:32:31.302Z,-3.91
2023-03-01T02:33:31.282Z,-3.88
2023-03-01T02:34:31.272Z,-3.99
2023-03-01T02:35:31.266Z,-3.91
2023-03-01T02:36:31.551Z,-3.85
2023-03-01T02:37:31.222Z,-3.91
2023-03-01T02:38:31.205Z,-3.92
2023-03-01T02:39:31.192Z,-3.88
2023-03-01T02:40:31.175Z,-4.03
2023-03-01T02:41:31.160Z,-3.99
2023-03-01T02:42:31.142Z,-4.10
2023-03-01T02:43:31.133Z,-4.02
2023-03-01T02:44:31.109Z,-4.07
2023-03-01T02:45:31.100Z,-4.03
2023-03-01T02:46:31.431Z,-4.04
2023-03-01T02:47:31.066Z,-4.03
2023-03-01T02:48:31.049Z,-4.04
2023-03-01T02:49:31.033Z,-4.10
2023-03-01T02:50:31.018Z,-4.09
2023-03-01T02:51:30.998Z,-4.02
2023-03-01T02:52:30.993Z,-4.12
2023-03-01T02:53:30.965Z,-4.03
2023-03-01T02:54:30.949Z,-4.06
2023-03-01T02:55:30.936Z,-4.12
2023-03-01T02:56:31.250Z,-4.09
2023-03-01T02:57:30.911Z,-4.10
2023-03-01T02:58:30.886Z,-4.20
2023-03-01T02:59:30.873Z,-4.09
2023-03-01T03:00:30.890Z,-3.98
2023-03-01T03:01:30.836Z,-3.95
2023-03-01T03:02:30.823Z,-3.89
2023-03-01T03:03:30.878Z,-3.86
2023-03-01T03:04:30.789Z,-3.95
2023-03-01T03:05:30.775Z,-3.95
2023-03-01T03:06:31.133Z,-3.98
2023-03-01T03:07:30.742Z,-3.99
2023-03-01T03:08:30.764Z,-4.04
2023-03-01T03:09:30.718Z,-4.02
2023-03-01T03:10:30.692Z,-4.10
2023-03-01T03:11:30.680Z,-4.10
2023-03-01T03:12:30.661Z,-4.14
2023-03-01T03:13:30.648Z,-4.17
2023-03-01T03:14:30.626Z,-4.17
2023-03-01T03:15:30.612Z,-4.17
2023-03-01T03:16:30.933Z,-4.10
2023-03-01T03:17:30.582Z,-4.04
2023-03-01T03:18:30.564Z,-4.14
2023-03-01T03:19:30.568Z,-4.09
2023-03-01T03:20:30.533Z,-4.03
2023-03-01T03:21:30.561Z,-4.10
2023-03-01T03:22:30.501Z,-4.06
2023-03-01T03:23:30.486Z,-4.14
2023-03-01T03:24:30.465Z,-4.13
2023-03-01T03:25:30.484Z,-4.21
2023-03-01T03:26:30.815Z,-4.28
2023-03-01T03:27:30.417Z,-4.20
2023-03-01T03:28:30.413Z,-4.12
2023-03-01T03:29:30.385Z,-4.17
2023-03-01T03:30:30.379Z,-4.21
2023-03-01T03:31:30.402Z,-4.17
2023-03-01T03:32:30.371Z,-4.27
2023-03-01T03:33:30.314Z,-4.27
2023-03-01T03:34:30.306Z,-4.34
2023-03-01T03:35:30.389Z,-4.34
2023-03-01T03:36:30.504Z,-4.25
2023-03-01T03:37:30.253Z,-4.32
2023-03-01T03:38:30.238Z,-4.34
2023-03-01T03:39:30.223Z,-4.34
2023-03-01T03:40:30.205Z,-4.38
2023-03-01T03:41:30.189Z,-4.28
2023-03-01T03:42:30.175Z,-4.32
2023-03-01T03:43:30.159Z,-4.27
2023-03-01T03:44:30.146Z,-4.38
2023-03-01T03:45:30.156Z,-4.38
2023-03-01T03:46:30.108Z,-4.39
2023-03-01T03:47:30.091Z,-4.32
2023-03-01T03:48:30.076Z,-4.28
2023-03-01T03:49:30.070Z,-4.38
2023-03-01T03:50:30.047Z,-4.34
2023-03-01T03:51:30.058Z,-4.28
2023-03-01T03:52:30.012Z,-4.22
2023-03-01T03:53:29.994Z,-4.13
2023-03-01T03:54:29.977Z,-4.20
2023-03-01T03:55:29.962Z,-4.14
2023-03-01T03:56:30.424Z,-4.27
2023-03-01T03:57:29.930Z,-4.25
2023-03-01T03:58:29.921Z,-4.25
2023-03-01T03:59:29.909Z,-4.27
2023-03-01T04:00:29.902Z,-4.32
2023-03-01T04:01:29.911Z,-4.38
2023-03-01T04:02:29.896Z,-4.32
2023-03-01T04:03:29.847Z,-4.38
2023-03-01T04:04:29.822Z,-4.28
2023-03-01T04:05:29.800Z,-4.38
2023-03-01T04:06:30.104Z,-4.42
2023-03-01T04:07:29.767Z,-4.42
2023-03-01T04:08:29.750Z,-4.46
2023-03-01T04:09:29.740Z,-4.46
2023-03-01T04:10:29.726Z,-4.45
2023-03-01T04:11:29.730Z,-4.35
2023-03-01T04:12:29.686Z,-4.48
2023-03-01T04:13:29.683Z,-4.49
2023-03-01T04:14:29.659Z,-4.48
2023-03-01T04:15:29.665Z,-4.46
2023-03-01T04:16:30.163Z,-4.42
2023-03-01T04:17:29.604Z,-4.45
2023-03-01T04:18:29.595Z,-4.50
2023-03-01T04:19:29.575Z,-4.57
2023-03-01T04:20:29.554Z,-4.55
2023-03-01T04:21:29.540Z,-4.52
2023-03-01T04:22:29.525Z,-4.60
2023-03-01T04:23:29.508Z,-4.63
2023-03-01T04:24:29.492Z,-4.53
2023-03-01T04:25:29.477Z,-4.61
2023-03-01T04:26:29.763Z,-4.61
2023-03-01T04:27:29.441Z,-4.73
2023-03-01T04:28:29.427Z,-4.59
2023-03-01T04:29:29.411Z,-4.49
2023-03-01T04:30:29.394Z,-4.59
2023-03-01T04:31:29.425Z,-4.50
2023-03-01T04:32:29.382Z,-4.50
2023-03-01T04:33:29.346Z,-4.63
2023-03-01T04:34:29.325Z,-4.69
2023-03-01T04:35:29.381Z,-4.64
2023-03-01T04:36:29.566Z,-4.63
2023-03-01T04:37:29.287Z,-4.63
2023-03-01T04:38:29.267Z,-4.67
2023-03-01T04:39:29.249Z,-4.63
2023-03-01T04:40:29.232Z,-4.63
2023-03-01T04:41:29.219Z,-4.73
2023-03-01T04:42:29.201Z,-4.61
2023-03-01T04:43:29.199Z,-4.69
2023-03-01T04:44:29.167Z,-4.60
2023-03-01T04:45:29.149Z,-4.50
2023-03-01T04:46:29.593Z,-4.43
2023-03-01T04:47:29.117Z,-4.35
2023-03-01T04:48:29.114Z,-4.49
2023-03-01T04:49:29.085Z,-4.48
2023-03-01T04:50:29.071Z,-4.30
2023-03-01T04:51:29.057Z,-4.46
2023-03-01T04:52:29.033Z,-4.50
2023-03-01T04:53:29.019Z,-4.55
2023-03-01T04:54:29.004Z,-4.48
2023-03-01T04:55:28.992Z,-4.50
2023-03-01T04:56:29.246Z,-4.48
2023-03-01T04:57:28.955Z,-4.45
2023-03-01T04:58:28.938Z,-4.55
2023-03-01T04:59:28.932Z,-4.64
2023-03-01T05:00:28.920Z,-4.73
2023-03-01T05:01:28.891Z,-4.71
2023-03-01T05:02:28.879Z,-4.71
2023-03-01T05:03:28.866Z,-4.78
2023-03-01T05:04:28.875Z,-4.79
2023-03-01T05:05:28.836Z,-4.81
2023-03-01T05:06:29.096Z,-4.73
2023-03-01T05:07:28.805Z,-4.67
2023-03-01T05:08:28.790Z,-4.81
2023-03-01T05:09:28.755Z,-4.73
2023-03-01T05:10:28.760Z,-4.82
2023-03-01T05:11:28.730Z,-4.70
2023-03-01T05:12:28.712Z,-4.79
2023-03-01T05:13:28.690Z,-4.75
2023-03-01T05:14:28.677Z,-4.82
2023-03-01T05:15:28.662Z,-4.79
2023-03-01T05:16:28.965Z,-4.92
2023-03-01T05:17:28.626Z,-4.88
2023-03-01T05:18:28.623Z,-4.96
2023-03-01T05:19:28.594Z,-4.81
2023-03-01T05:20:28.576Z,-4.87
2023-03-01T05:21:28.561Z,-4.98
2023-03-01T05:22:28.545Z,-4.91
2023-03-01T05:23:28.531Z,-4.75
2023-03-01T05:24:28.517Z,-4.81
2023-03-01T05:25:28.497Z,-4.78
2023-03-01T05:26:28.957Z,-4.61
2023-03-01T05:27:28.464Z,-4.69
2023-03-01T05:28:28.445Z,-4.73
2023-03-01T05:29:28.437Z,-4.69
2023-03-01T05:30:28.408Z,-4.64
2023-03-01T05:31:28.491Z,-4.71
2023-03-01T05:32:28.384Z,-4.79
2023-03-01T05:33:28.364Z,-4.87
2023-03-01T05:34:28.352Z,-4.79
2023-03-01T05:35:28.365Z,-4.88
2023-03-01T05:36:28.331Z,-4.89
2023-03-01T05:37:28.304Z,-4.98
2023-03-01T05:38:28.282Z,-4.85
2023-03-01T05:39:28.262Z,-4.92
2023-03-01T05:40:28.250Z,-4.92
2023-03-01T05:41:28.229Z,-5.03
2023-03-01T05:42:28.212Z,-4.92
2023-03-01T05:43:28.199Z,-5.03
2023-03-01T05:44:28.179Z,-5.03
2023-03-01T05:45:28.176Z,-5.06
2023-03-01T05:46:28.541Z,-4.89
2023-03-01T05:47:28.138Z,-4.95
2023-03-01T05:48:28.115Z,-4.92
2023-03-01T05:49:28.101Z,-4.91
2023-03-01T05:50:28.101Z,-5.00
2023-03-01T05:51:28.068Z,-4.92
2023-03-01T05:52:28.045Z,-4.96
2023-03-01T05:53:28.031Z,-5.09
2023-03-01T05:54:28.021Z,-5.06
2023-03-01T05:55:29.092Z,-4.92
2023-03-01T05:56:28.227Z,-4.92
2023-03-01T05:57:27.996Z,-4.95
2023-03-01T05:58:27.959Z,-4.99
2023-03-01T05:59:27.935Z,-4.98
2023-03-01T06:00:27.919Z,-5.00
2023-03-01T06:01:27.902Z,-4.89
2023-03-01T06:02:27.892Z,-4.89
2023-03-01T06:03:27.878Z,-4.89
2023-03-01T06:04:27.901Z,-4.87
2023-03-01T06:05:27.940Z,-4.81
2023-03-01T06:06:29.148Z,-4.88
2023-03-01T06:07:27.801Z,-4.79
2023-03-01T06:08:27.802Z,-4.63
2023-03-01T06:09:27.775Z,-4.77
2023-03-01T06:10:27.758Z,-4.66
2023-03-01T06:11:27.743Z,-4.64
2023-03-01T06:12:27.722Z,-4.52
2023-03-01T06:13:27.720Z,-4.53
2023-03-01T06:14:27.705Z,-4.42
2023-03-01T06:15:27.683Z,-4.35
2023-03-01T06:16:27.751Z,-4.48
2023-03-01T06:17:27.645Z,-4.38
2023-03-01T06:18:27.624Z,-4.38
2023-03-01T06:19:27.616Z,-4.35
2023-03-01T06:20:27.591Z,-4.32
2023-03-01T06:21:27.578Z,-4.22
2023-03-01T06:22:27.569Z,-4.21
2023-03-01T06:23:27.541Z,-4.22
2023-03-01T06:24:27.543Z,-4.20
2023-03-01T06:25:27.512Z,-4.12
2023-03-01T06:26:27.494Z,-4.06
2023-03-01T06:27:27.485Z,-4.09
2023-03-01T06:28:27.466Z,-4.04
2023-03-01T06:29:27.449Z,-3.98
2023-03-01T06:30:27.438Z,-3.95
2023-03-01T06:31:27.453Z,-3.95
2023-03-01T06:32:27.478Z,-3.89
2023-03-01T06:33:27.381Z,-3.96
2023-03-01T06:34:27.368Z,-3.91
2023-03-01T06:35:27.380Z,-3.82
2023-03-01T06:36:27.331Z,-3.80
2023-03-01T06:37:27.331Z,-3.69
2023-03-01T06:38:27.311Z,-3.63
2023-03-01T06:39:27.279Z,-3.63
2023-03-01T06:40:27.261Z,-3.51
2023-03-01T06:41:27.246Z,-3.35
2023-03-01T06:42:27.230Z,-3.23
2023-03-01T06:43:27.236Z,-2.83
2023-03-01T06:44:27.380Z,-2.66
2023-03-01T06:45:27.191Z,-2.37
2023-03-01T06:46:27.239Z,-2.15
2023-03-01T06:47:27.155Z,-2.02
2023-03-01T06:48:27.132Z,-1.97
2023-03-01T06:49:27.130Z,-1.89
2023-03-01T06:50:27.152Z,-1.87
2023-03-01T06:51:27.101Z,-2.12
2023-03-01T06:52:27.086Z,-2.15
2023-03-01T06:53:27.059Z,-2.16
2023-03-01T06:54:27.060Z,-2.25
2023-03-01T06:55:27.033Z,-2.38
2023-03-01T06:56:27.039Z,-2.37
2023-03-01T06:57:27.044Z,-2.40
2023-03-01T06:58:26.994Z,-2.45
2023-03-01T06:59:26.966Z,-2.47
2023-03-01T07:00:26.982Z,-2.58
2023-03-01T07:01:26.950Z,-2.70
2023-03-01T07:02:26.951Z,-2.55
2023-03-01T07:03:26.901Z,-2.65
2023-03-01T07:04:26.879Z,-2.62
2023-03-01T07:05:26.867Z,-2.63
2023-03-01T07:06:26.849Z,-2.63
2023-03-01T07:07:26.830Z,-2.58
2023-03-01T07:08:26.815Z,-2.65
2023-03-01T07:09:26.804Z,-2.60
2023-03-01T07:10:26.793Z,-2.59
2023-03-01T07:11:26.777Z,-2.56
2023-03-01T07:12:26.756Z,-2.66
2023-03-01T07:13:26.745Z,-2.48
2023-03-01T07:14:26.743Z,-2.58
2023-03-01T07:15:26.715Z,-2.47
2023-03-01T07:16:26.797Z,-2.50
2023-03-01T07:17:26.683Z,-2.44
2023-03-01T07:18:26.663Z,-2.56
2023-03-01T07:19:26.648Z,-2.47
2023-03-01T07:20:26.854Z,-2.47
2023-03-01T07:21:26.613Z,-2.45
2023-03-01T07:22:26.602Z,-2.34
2023-03-01T07:23:26.585Z,-2.44
2023-03-01T07:24:26.568Z,-2.30
2023-03-01T07:25:26.556Z,-2.25
2023-03-01T07:26:26.538Z,-2.23
2023-03-01T07:27:26.525Z,-2.23
2023-03-01T07:28:26.503Z,-2.21
2023-03-01T07:29:26.494Z,-2.22
2023-03-01T07:30:26.477Z,-2.19
2023-03-01T07:31:26.462Z,-2.12
2023-03-01T07:32:26.502Z,-2.13
2023-03-01T07:33:26.451Z,-2.12
2023-03-01T07:34:26.409Z,-1.92
2023-03-01T07:35:26.432Z,-1.94
2023-03-01T07:36:26.406Z,-1.87
2023-03-01T07:37:26.370Z,-1.76
2023-03-01T07:38:26.353Z,-1.74
2023-03-01T07:39:26.337Z,-1.66
2023-03-01T07:40:26.330Z,-1.69
2023-03-01T07:41:26.311Z,-1.65
2023-03-01T07:42:26.289Z,-1.62
2023-03-01T07:43:26.268Z,-1.66
2023-03-01T07:44:26.266Z,-1.56
2023-03-01T07:45:26.276Z,-1.50
2023-03-01T07:46:26.237Z,-1.50
2023-03-01T07:47:26.217Z,-1.43
2023-03-01T07:48:26.194Z,-1.35
2023-03-01T07:49:26.193Z,-1.47
2023-03-01T07:50:26.163Z,-1.33
2023-03-01T07:51:26.157Z,-1.33
2023-03-01T07:52:26.135Z,-1.27
2023-03-01T07:53:26.116Z,-1.30
2023-03-01T07:54:26.114Z,-1.15
2023-03-01T07:55:26.090Z,-1.17
2023-03-01T07:56:26.075Z,-1.11
2023-03-01T07:57:26.055Z,-1.11
2023-03-01T07:58:26.041Z,-1.04
2023-03-01T07:59:26.028Z,-1.04
2023-03-01T08:00:26.010Z,-0.99
2023-03-01T08:01:26.057Z,-0.99
2023-03-01T08:02:25.985Z,-0.96
2023-03-01T08:03:25.972Z,-0.82
2023-03-01T08:04:25.947Z,-0.82
2023-03-01T08:05:25.933Z,-0.68
2023-03-01T08:06:25.918Z,-0.67
2023-03-01T08:07:25.910Z,-0.64
2023-03-01T08:08:25.888Z,-0.62
2023-03-01T08:09:25.871Z,-0.50
2023-03-01T08:10:25.865Z,-0.47
2023-03-01T08:11:25.884Z,-0.35
2023-03-01T08:12:25.828Z,-0.29
2023-03-01T08:13:25.811Z,-0.20
2023-03-01T08:14:25.798Z,-0.15
2023-03-01T08:15:25.782Z,-0.14
2023-03-01T08:16:25.835Z,-0.10
2023-03-01T08:17:25.757Z,-0.13
2023-03-01T08:18:25.738Z,-0.07
2023-03-01T08:19:25.722Z,0.01
2023-03-01T08:20:25.789Z,0.00
2023-03-01T08:21:25.686Z,0.01
2023-03-01T08:22:25.680Z,0.11
2023-03-01T08:23:25.664Z,0.19
2023-03-01T08:24:25.650Z,0.28
2023-03-01T08:25:25.628Z,0.25
2023-03-01T08:26:25.623Z,0.49
2023-03-01T08:27:25.747Z,0.50
2023-03-01T08:28:25.586Z,0.58
2023-03-01T08:29:25.584Z,0.66
2023-03-01T08:30:25.570Z,0.66
2023-03-01T08:31:25.624Z,0.76
2023-03-01T08:32:25.549Z,0.92
2023-03-01T08:33:25.549Z,0.95
2023-03-01T08:34:25.492Z,0.86
2023-03-01T08:35:25.501Z,0.96
2023-03-01T08:36:25.480Z,0.94
2023-03-01T08:37:25.472Z,1.06
2023-03-01T08:38:25.439Z,1.06
2023-03-01T08:39:25.510Z,1.16
2023-03-01T08:40:25.470Z,1.19
2023-03-01T08:41:25.401Z,1.16
2023-03-01T08:42:25.392Z,1.20
2023-03-01T08:43:26.356Z,1.40
2023-03-01T08:44:25.355Z,1.42
2023-03-01T08:45:25.346Z,1.60
2023-03-01T08:46:25.328Z,1.62
2023-03-01T08:47:25.313Z,1.73
2023-03-01T08:48:25.300Z,1.84
2023-03-01T08:49:25.282Z,1.80
2023-03-01T08:50:25.276Z,1.84
2023-03-01T08:51:25.258Z,1.92
2023-03-01T08:52:25.242Z,1.92
2023-03-01T08:53:25.227Z,1.87
2023-03-01T08:54:25.213Z,1.99
2023-03-01T08:55:25.204Z,2.04
2023-03-01T08:56:25.185Z,2.00
2023-03-01T08:57:25.170Z,2.07
2023-03-01T08:58:25.151Z,2.06
2023-03-01T08:59:25.142Z,2.02
2023-03-01T09:00:25.133Z,2.07
2023-03-01T09:01:25.116Z,2.00
2023-03-01T09:02:25.136Z,2.13
2023-03-01T09:03:25.316Z,2.15
2023-03-01T09:04:25.075Z,2.20
2023-03-01T09:05:25.052Z,2.29
2023-03-01T09:06:25.052Z,2.25
2023-03-01T09:07:25.029Z,2.32
2023-03-01T09:08:25.034Z,2.38
2023-03-01T09:09:24.999Z,2.35
2023-03-01T09:10:24.995Z,2.42
2023-03-01T09:11:24.981Z,2.32
2023-03-01T09:12:24.974Z,2.44
2023-03-01T09:13:24.947Z,2.46
2023-03-01T09:14:24.931Z,2.57
2023-03-01T09:15:24.921Z,2.75
2023-03-01T09:16:24.986Z,2.82
2023-03-01T09:17:24.899Z,2.90
2023-03-01T09:18:24.881Z,2.85
2023-03-01T09:19:27.277Z,2.87
2023-03-01T09:20:24.852Z,2.90
2023-03-01T09:21:37.229Z,2.89
2023-03-01T09:22:24.832Z,2.98
2023-03-01T09:23:24.810Z,3.04
2023-03-01T09:24:24.803Z,3.05
2023-03-01T09:25:24.785Z,3.13
2023-03-01T09:26:24.777Z,3.13
2023-03-01T09:27:24.769Z,3.08
2023-03-01T09:28:30.121Z,3.21
2023-03-01T09:29:24.760Z,3.29
2023-03-01T09:30:24.716Z,3.23
2023-03-01T09:31:24.704Z,3.25
2023-03-01T09:32:24.722Z,3.26
2023-03-01T09:33:24.674Z,3.34
2023-03-01T09:34:24.662Z,3.29
2023-03-01T09:35:24.666Z,3.42
2023-03-01T09:36:24.637Z,3.48
2023-03-01T09:37:24.622Z,3.56
2023-03-01T09:38:25.977Z,3.44
2023-03-01T09:39:24.606Z,3.53
2023-03-01T09:40:24.580Z,3.48
2023-03-01T09:41:24.568Z,3.56
2023-03-01T09:42:24.554Z,3.59
2023-03-01T09:43:24.540Z,3.60
2023-03-01T09:44:24.527Z,3.62
2023-03-01T09:45:24.512Z,3.65
2023-03-01T09:46:24.521Z,3.76
2023-03-01T09:47:24.490Z,3.74
2023-03-01T09:48:24.479Z,3.80
2023-03-01T09:49:24.470Z,3.84
2023-03-01T09:50:24.453Z,3.94
2023-03-01T09:51:24.438Z,3.92
2023-03-01T09:52:24.467Z,3.92
2023-03-01T09:53:24.410Z,3.94
2023-03-01T09:54:24.395Z,4.02
2023-03-01T09:55:24.382Z,4.10
2023-03-01T09:56:24.370Z,4.19
2023-03-01T09:57:24.365Z,4.19
2023-03-01T09:58:24.343Z,4.23
2023-03-01T09:59:24.338Z,4.34
2023-03-01T10:00:24.358Z,4.34
2023-03-01T10:01:24.304Z,4.42
2023-03-01T10:02:24.356Z,4.44
2023-03-01T10:03:24.275Z,4.41
2023-03-01T10:04:24.294Z,4.48
2023-03-01T10:05:24.251Z,4.52
2023-03-01T10:06:34.468Z,4.50
2023-03-01T10:07:24.229Z,4.55
2023-03-01T10:08:24.215Z,4.56
2023-03-01T10:09:24.205Z,4.55
2023-03-01T10:10:24.184Z,4.60
2023-03-01T10:11:25.324Z,4.60
2023-03-01T10:12:24.164Z,4.60
2023-03-01T10:13:24.151Z,4.63
2023-03-01T10:14:24.143Z,4.60
2023-03-01T10:15:24.125Z,4.56
2023-03-01T10:16:24.115Z,4.68
2023-03-01T10:17:24.103Z,4.50
2023-03-01T10:18:24.093Z,4.59
2023-03-01T10:19:24.074Z,4.56
2023-03-01T10:20:24.067Z,4.60
2023-03-01T10:21:24.049Z,4.66
2023-03-01T10:22:24.047Z,4.66
2023-03-01T10:23:24.026Z,4.60
2023-03-01T10:24:24.012Z,4.60
2023-03-01T10:25:24.003Z,4.56
2023-03-01T10:26:23.986Z,4.63
2023-03-01T10:27:23.981Z,4.67
2023-03-01T10:28:23.966Z,4.63
2023-03-01T10:29:23.963Z,4.67
2023-03-01T10:30:23.940Z,4.70
2023-03-01T10:31:23.948Z,4.80
2023-03-01T10:32:25.178Z,4.93
2023-03-01T10:33:23.898Z,4.89
2023-03-01T10:34:23.887Z,4.94
2023-03-01T10:35:23.874Z,4.89
2023-03-01T10:36:23.865Z,5.08
2023-03-01T10:37:23.848Z,5.12
2023-03-01T10:38:23.836Z,5.17
2023-03-01T10:39:23.826Z,5.20
2023-03-01T10:40:23.812Z,5.15
2023-03-01T10:41:23.805Z,5.11
2023-03-01T10:42:23.789Z,5.11
2023-03-01T10:43:23.776Z,4.99
2023-03-01T10:44:23.761Z,4.89
2023-03-01T10:45:25.791Z,4.89
2023-03-01T10:46:23.761Z,4.90
2023-03-01T10:47:23.724Z,5.04
2023-03-01T10:48:23.718Z,4.99
2023-03-01T10:49:23.704Z,4.92
2023-03-01T10:50:23.705Z,5.02
2023-03-01T10:51:23.680Z,4.99
2023-03-01T10:52:23.665Z,4.99
2023-03-01T10:53:23.653Z,5.20
2023-03-01T10:54:23.639Z,5.14
2023-03-01T10:55:23.625Z,5.21
2023-03-01T10:56:23.617Z,5.32
2023-03-01T10:57:23.599Z,5.41
2023-03-01T10:58:23.591Z,5.33
2023-03-01T10:59:23.575Z,5.41
2023-03-01T11:00:23.568Z,5.35
2023-03-01T11:01:23.576Z,5.33
2023-03-01T11:02:25.432Z,5.36
2023-03-01T11:03:23.534Z,5.41
2023-03-01T11:04:23.559Z,5.47
2023-03-01T11:05:23.509Z,5.44
2023-03-01T11:06:23.498Z,5.47
2023-03-01T11:07:23.487Z,5.62
2023-03-01T11:08:23.465Z,5.68
2023-03-01T11:09:23.456Z,5.76
2023-03-01T11:10:23.442Z,5.84
2023-03-01T11:11:23.428Z,5.90
2023-03-01T11:12:23.420Z,5.89
2023-03-01T11:13:23.410Z,5.91
2023-03-01T11:14:27.399Z,5.94
2023-03-01T11:15:23.382Z,5.91
2023-03-01T11:16:23.389Z,6.02
2023-03-01T11:17:23.362Z,6.07
2023-03-01T11:18:30.987Z,6.04
2023-03-01T11:19:23.335Z,6.07
2023-03-01T11:20:24.715Z,6.11
2023-03-01T11:21:23.318Z,6.07
2023-03-01T11:22:23.413Z,6.11
2023-03-01T11:23:23.283Z,6.11
2023-03-01T11:24:23.275Z,6.16
2023-03-01T11:25:23.262Z,6.26
2023-03-01T11:26:23.250Z,6.35
2023-03-01T11:27:23.240Z,6.38
2023-03-01T11:28:23.225Z,6.52
2023-03-01T11:29:23.217Z,6.59
2023-03-01T11:30:23.215Z,6.60
2023-03-01T11:31:23.222Z,6.60
2023-03-01T11:32:23.389Z,6.60
2023-03-01T11:33:23.165Z,6.57
2023-03-01T11:34:23.151Z,6.41
2023-03-01T11:35:23.144Z,6.41
2023-03-01T11:36:23.172Z,6.39
2023-03-01T11:37:23.145Z,6.60
2023-03-01T11:38:23.124Z,6.49
2023-03-01T11:39:23.093Z,6.49
2023-03-01T11:40:23.086Z,6.36
2023-03-01T11:41:23.069Z,6.45
2023-03-01T11:42:23.059Z,6.52
2023-03-01T11:43:23.052Z,6.49
2023-03-01T11:44:23.034Z,6.45
2023-03-01T11:45:23.038Z,6.59
2023-03-01T11:46:23.075Z,6.59
2023-03-01T11:47:23.141Z,6.57
2023-03-01T11:48:22.989Z,6.66
2023-03-01T11:49:22.981Z,6.56
2023-03-01T11:50:22.964Z,6.62
2023-03-01T11:51:22.988Z,6.57
2023-03-01T11:52:22.941Z,6.46
2023-03-01T11:53:22.952Z,6.46
2023-03-01T11:54:22.924Z,6.41
2023-03-01T11:55:22.945Z,6.51
2023-03-01T11:56:24.017Z,6.52
2023-03-01T11:57:26.931Z,6.63
2023-03-01T11:58:22.877Z,6.59
2023-03-01T11:59:22.866Z,6.64
2023-03-01T12:00:22.847Z,6.62
2023-03-01T12:01:22.839Z,6.56
2023-03-01T12:02:22.930Z,6.66
2023-03-01T12:03:22.816Z,6.74
2023-03-01T12:04:22.895Z,6.81
2023-03-01T12:05:22.791Z,6.93
2023-03-01T12:06:22.782Z,6.87
2023-03-01T12:07:22.778Z,6.85
2023-03-01T12:08:22.762Z,7.02
2023-03-01T12:09:22.754Z,6.95
2023-03-01T12:10:22.816Z,7.00
2023-03-01T12:11:22.734Z,7.05
2023-03-01T12:12:22.730Z,7.00
2023-03-01T12:13:22.710Z,7.06
2023-03-01T12:14:22.726Z,7.02
2023-03-01T12:15:22.684Z,7.07
2023-03-01T12:16:36.336Z,7.00
2023-03-01T12:17:22.660Z,7.02
2023-03-01T12:18:22.647Z,7.18
2023-03-01T12:19:22.638Z,7.31
2023-03-01T12:20:22.641Z,7.25
2023-03-01T12:21:22.613Z,7.39
2023-03-01T12:22:22.608Z,7.31
2023-03-01T12:23:22.591Z,7.17
2023-03-01T12:24:22.580Z,7.18
2023-03-01T12:25:22.566Z,7.17
2023-03-01T12:26:22.565Z,7.20
2023-03-01T12:27:22.548Z,7.17
2023-03-01T12:28:22.530Z,7.18
2023-03-01T12:29:22.520Z,7.32
2023-03-01T12:30:22.518Z,7.29
2023-03-01T12:31:22.558Z,7.47
2023-03-01T12:32:22.640Z,7.35
2023-03-01T12:33:22.489Z,7.43
2023-03-01T12:34:22.474Z,7.28
2023-03-01T12:35:22.453Z,7.17
2023-03-01T12:36:22.508Z,7.20
2023-03-01T12:37:22.455Z,7.31
2023-03-01T12:38:22.431Z,7.31
2023-03-01T12:39:22.413Z,7.32
2023-03-01T12:40:22.404Z,7.43
2023-03-01T12:41:22.397Z,7.45
2023-03-01T12:42:22.386Z,7.54
2023-03-01T12:43:22.367Z,7.53
2023-03-01T12:44:22.362Z,7.47
2023-03-01T12:45:22.341Z,7.51
2023-03-01T12:46:22.333Z,7.50
2023-03-01T12:47:22.330Z,7.36
2023-03-01T12:48:22.307Z,7.48
2023-03-01T12:49:22.304Z,7.51
2023-03-01T12:50:22.290Z,7.48
2023-03-01T12:51:22.281Z,7.56
2023-03-01T12:52:22.274Z,7.63
2023-03-01T12:53:22.255Z,7.54
2023-03-01T12:54:22.257Z,7.60
2023-03-01T12:55:22.236Z,7.58
2023-03-01T12:56:22.235Z,7.66
2023-03-01T12:57:22.214Z,7.60
2023-03-01T12:58:22.223Z,7.63
2023-03-01T12:59:22.191Z,7.61
2023-03-01T13:00:22.186Z,7.57
2023-03-01T13:01:22.203Z,7.63